Terminal Aerodrome Forecast
Issued by NWS North Platte, NE

Home | Current Version | Previous Version | Text Only | Print | Product List | Glossary On
Versions: 1 2 3 4 5 6 7 8 9 10 11 12 13 14 15 16
965
FTUS43 KLBF 201735
TAFLBF
TAF
KLBF 201735Z 2018/2118 29012KT P6SM BKN250
     FM201900 28015G22KT P6SM BKN250
     FM202300 29013KT P6SM BKN250
     FM210300 32005KT P6SM SCT100 BKN200
     FM211000 36012KT P6SM SCT050 BKN100=

USA.gov is the U.S. government's official web portal to all federal, state and local government web resources and services.